sensor_id;sensor_type;location;lat;lon;timestamp;pressure;altitude;pressure_sealevel;temperature;humidity
46045;BME280;31781;54.094;13.428;2023-04-28T00:01:08;102080.00;;;6.39;55.21
46045;BME280;31781;54.094;13.428;2023-04-28T00:03:10;102083.84;;;6.36;55.25
46045;BME280;31781;54.094;13.428;2023-04-28T00:05:12;102080.44;;;6.34;55.05
46045;BME280;31781;54.094;13.428;2023-04-28T00:07:14;102084.31;;;6.31;55.04
46045;BME280;31781;54.094;13.428;2023-04-28T00:09:15;102080.03;;;6.29;55.46
46045;BME280;31781;54.094;13.428;2023-04-28T00:11:17;102084.56;;;6.28;55.30
46045;BME280;31781;54.094;13.428;2023-04-28T00:13:19;102083.19;;;6.24;55.19
46045;BME280;31781;54.094;13.428;2023-04-28T00:15:22;102076.94;;;6.24;55.09
46045;BME280;31781;54.094;13.428;2023-04-28T00:17:23;102075.38;;;6.21;55.43
46045;BME280;31781;54.094;13.428;2023-04-28T00:19:25;102078.22;;;6.20;55.67
46045;BME280;31781;54.094;13.428;2023-04-28T00:21:27;102072.09;;;6.18;55.30
46045;BME280;31781;54.094;13.428;2023-04-28T00:23:28;102071.41;;;6.16;56.04
46045;BME280;31781;54.094;13.428;2023-04-28T00:25:30;102071.56;;;6.14;55.18
46045;BME280;31781;54.094;13.428;2023-04-28T00:27:32;102071.72;;;6.13;55.73
46045;BME280;31781;54.094;13.428;2023-04-28T00:29:34;102072.72;;;6.12;55.96
46045;BME280;31781;54.094;13.428;2023-04-28T00:31:36;102067.44;;;6.10;55.39
46045;BME280;31781;54.094;13.428;2023-04-28T00:33:38;102061.19;;;6.10;55.76
46045;BME280;31781;54.094;13.428;2023-04-28T00:35:40;102065.75;;;6.09;56.22
46045;BME280;31781;54.094;13.428;2023-04-28T00:37:42;102064.06;;;6.08;56.18
46045;BME280;31781;54.094;13.428;2023-04-28T00:39:43;102065.91;;;6.08;55.64
46045;BME280;31781;54.094;13.428;2023-04-28T00:41:45;102067.75;;;6.07;56.26
46045;BME280;31781;54.094;13.428;2023-04-28T00:43:47;102063.50;;;6.05;56.15
46045;BME280;31781;54.094;13.428;2023-04-28T00:45:49;102066.19;;;6.05;56.28
46045;BME280;31781;54.094;13.428;2023-04-28T00:47:53;102059.94;;;6.04;55.71
46045;BME280;31781;54.094;13.428;2023-04-28T00:49:55;102061.94;;;6.02;55.68
46045;BME280;31781;54.094;13.428;2023-04-28T00:51:57;102060.25;;;6.01;56.06
46045;BME280;31781;54.094;13.428;2023-04-28T00:54:00;102059.53;;;5.99;56.28
46045;BME280;31781;54.094;13.428;2023-04-28T00:56:02;102061.38;;;5.99;56.07
46045;BME280;31781;54.094;13.428;2023-04-28T00:58:04;102056.13;;;5.97;56.65
46045;BME280;31781;54.094;13.428;2023-04-28T01:00:07;102060.69;;;5.97;56.32
46045;BME280;31781;54.094;13.428;2023-04-28T01:02:09;102057.13;;;5.96;55.88
46045;BME280;31781;54.094;13.428;2023-04-28T01:04:13;102051.03;;;5.94;56.25
46045;BME280;31781;54.094;13.428;2023-04-28T01:06:16;102051.16;;;5.93;56.57
46045;BME280;31781;54.094;13.428;2023-04-28T01:08:22;102054.03;;;5.91;56.17
46045;BME280;31781;54.094;13.428;2023-04-28T01:10:23;102056.84;;;5.90;57.04
46045;BME280;31781;54.094;13.428;2023-04-28T01:12:25;102055.31;;;5.87;56.44
46045;BME280;31781;54.094;13.428;2023-04-28T01:14:27;102048.19;;;5.86;56.70
46045;BME280;31781;54.094;13.428;2023-04-28T01:16:28;102048.47;;;5.83;56.93
46045;BME280;31781;54.094;13.428;2023-04-28T01:18:30;102044.19;;;5.80;56.71
46045;BME280;31781;54.094;13.428;2023-04-28T01:20:33;102045.34;;;5.78;56.72
46045;BME280;31781;54.094;13.428;2023-04-28T01:22:35;102043.63;;;5.77;56.85
46045;BME280;31781;54.094;13.428;2023-04-28T01:24:38;102051.91;;;5.75;57.58
46045;BME280;31781;54.094;13.428;2023-04-28T01:26:40;102051.16;;;5.73;57.56
46045;BME280;31781;54.094;13.428;2023-04-28T01:28:42;102048.47;;;5.73;57.05
46045;BME280;31781;54.094;13.428;2023-04-28T01:30:43;102055.59;;;5.74;57.88
46045;BME280;31781;54.094;13.428;2023-04-28T01:32:45;102045.78;;;5.73;57.30
46045;BME280;31781;54.094;13.428;2023-04-28T01:34:46;102050.31;;;5.73;57.50
46045;BME280;31781;54.094;13.428;2023-04-28T01:36:48;102053.03;;;5.73;57.01
46045;BME280;31781;54.094;13.428;2023-04-28T01:38:50;102059.44;;;5.72;58.14
46045;BME280;31781;54.094;13.428;2023-04-28T01:40:54;102056.75;;;5.72;57.07
46045;BME280;31781;54.094;13.428;2023-04-28T01:42:55;102057.59;;;5.72;58.04
46045;BME280;31781;54.094;13.428;2023-04-28T01:44:57;102063.00;;;5.72;58.08
46045;BME280;31781;54.094;13.428;2023-04-28T01:46:59;102054.16;;;5.70;57.83
46045;BME280;31781;54.094;13.428;2023-04-28T01:49:01;102056.00;;;5.70;57.43
46045;BME280;31781;54.094;13.428;2023-04-28T01:51:03;102052.47;;;5.69;58.23
46045;BME280;31781;54.094;13.428;2023-04-28T01:53:04;102054.16;;;5.70;58.01
46045;BME280;31781;54.094;13.428;2023-04-28T01:55:07;102059.56;;;5.70;57.72
46045;BME280;31781;54.094;13.428;2023-04-28T01:57:10;102052.31;;;5.71;57.94
46045;BME280;31781;54.094;13.428;2023-04-28T01:59:11;102057.72;;;5.71;57.86
46045;BME280;31781;54.094;13.428;2023-04-28T02:01:13;102054.34;;;5.69;58.12
46045;BME280;31781;54.094;13.428;2023-04-28T02:03:15;102056.00;;;5.70;57.72
46045;BME280;31781;54.094;13.428;2023-04-28T02:05:16;102052.31;;;5.71;58.02
46045;BME280;31781;54.094;13.428;2023-04-28T02:07:18;102051.47;;;5.70;58.15
46045;BME280;31781;54.094;13.428;2023-04-28T02:09:19;102052.19;;;5.72;58.36
46045;BME280;31781;54.094;13.428;2023-04-28T02:11:21;102043.94;;;5.74;59.02
46045;BME280;31781;54.094;13.428;2023-04-28T02:13:24;102049.19;;;5.75;59.23
46045;BME280;31781;54.094;13.428;2023-04-28T02:15:26;102041.94;;;5.76;58.74
46045;BME280;31781;54.094;13.428;2023-04-28T02:17:28;102049.88;;;5.77;58.76
46045;BME280;31781;54.094;13.428;2023-04-28T02:19:30;102048.75;;;5.80;58.22
46045;BME280;31781;54.094;13.428;2023-04-28T02:21:32;102047.75;;;5.81;58.23
46045;BME280;31781;54.094;13.428;2023-04-28T02:23:33;102049.47;;;5.82;59.24
46045;BME280;31781;54.094;13.428;2023-04-28T02:25:35;102047.44;;;5.84;59.24
46045;BME280;31781;54.094;13.428;2023-04-28T02:27:36;102048.19;;;5.86;58.82
46045;BME280;31781;54.094;13.428;2023-04-28T02:29:39;102043.75;;;5.85;58.89
46045;BME280;31781;54.094;13.428;2023-04-28T02:31:41;102044.59;;;5.85;58.88
46045;BME280;31781;54.094;13.428;2023-04-28T02:33:43;102050.59;;;5.89;58.92
46045;BME280;31781;54.094;13.428;2023-04-28T02:35:44;102042.50;;;5.89;58.53
46045;BME280;31781;54.094;13.428;2023-04-28T02:37:46;102045.91;;;5.91;58.75
46045;BME280;31781;54.094;13.428;2023-04-28T02:39:48;102043.22;;;5.91;59.32
46045;BME280;31781;54.094;13.428;2023-04-28T02:41:49;102046.75;;;5.92;59.12
46045;BME280;31781;54.094;13.428;2023-04-28T02:43:51;102040.34;;;5.93;59.09
46045;BME280;31781;54.094;13.428;2023-04-28T02:45:54;102045.63;;;5.94;58.63
46045;BME280;31781;54.094;13.428;2023-04-28T02:47:56;102038.38;;;5.95;58.92
46045;BME280;31781;54.094;13.428;2023-04-28T02:49:57;102041.91;;;5.95;58.28
46045;BME280;31781;54.094;13.428;2023-04-28T02:51:59;102041.91;;;5.95;58.39
46045;BME280;31781;54.094;13.428;2023-04-28T02:54:00;102042.91;;;5.94;58.80
46045;BME280;31781;54.094;13.428;2023-04-28T02:56:02;102038.38;;;5.95;59.33
46045;BME280;31781;54.094;13.428;2023-04-28T02:58:04;102032.81;;;5.96;58.45
46045;BME280;31781;54.094;13.428;2023-04-28T03:00:07;102034.50;;;5.97;58.94
46045;BME280;31781;54.094;13.428;2023-04-28T03:02:10;102035.38;;;5.98;58.61
46045;BME280;31781;54.094;13.428;2023-04-28T03:04:11;102029.81;;;5.99;59.06
46045;BME280;31781;54.094;13.428;2023-04-28T03:06:13;102030.66;;;6.00;58.96
46045;BME280;31781;54.094;13.428;2023-04-28T03:08:15;102026.97;;;6.01;59.37
46045;BME280;31781;54.094;13.428;2023-04-28T03:10:16;102025.25;;;6.00;59.29
46045;BME280;31781;54.094;13.428;2023-04-28T03:12:18;102023.41;;;6.00;59.67
46045;BME280;31781;54.094;13.428;2023-04-28T03:14:20;102026.84;;;6.02;59.21
46045;BME280;31781;54.094;13.428;2023-04-28T03:16:22;102022.41;;;6.01;59.10
46045;BME280;31781;54.094;13.428;2023-04-28T03:18:25;102026.09;;;6.00;59.31
46045;BME280;31781;54.094;13.428;2023-04-28T03:20:27;102021.69;;;5.99;59.51
46045;BME280;31781;54.094;13.428;2023-04-28T03:22:28;102020.72;;;6.00;59.95
46045;BME280;31781;54.094;13.428;2023-04-28T03:24:30;102023.41;;;6.00;59.97
46045;BME280;31781;54.094;13.428;2023-04-28T03:26:32;102027.09;;;5.99;59.79
46045;BME280;31781;54.094;13.428;2023-04-28T03:28:33;102024.56;;;5.98;60.43
46045;BME280;31781;54.094;13.428;2023-04-28T03:30:35;102028.94;;;5.99;60.11
46045;BME280;31781;54.094;13.428;2023-04-28T03:32:36;102033.66;;;5.97;59.49
46045;BME280;31781;54.094;13.428;2023-04-28T03:34:39;102028.25;;;5.97;59.75
46045;BME280;31781;54.094;13.428;2023-04-28T03:36:41;102027.56;;;5.95;59.51
46045;BME280;31781;54.094;13.428;2023-04-28T03:38:42;102028.56;;;5.94;59.09
46045;BME280;31781;54.094;13.428;2023-04-28T03:40:44;102028.69;;;5.92;59.26
46045;BME280;31781;54.094;13.428;2023-04-28T03:42:46;102022.59;;;5.90;59.12
46045;BME280;31781;54.094;13.428;2023-04-28T03:44:48;102022.03;;;5.86;58.92
46045;BME280;31781;54.094;13.428;2023-04-28T03:46:49;102022.16;;;5.85;58.90
46045;BME280;31781;54.094;13.428;2023-04-28T03:48:51;102025.00;;;5.83;58.79
46045;BME280;31781;54.094;13.428;2023-04-28T03:50:54;102019.75;;;5.82;58.79
46045;BME280;31781;54.094;13.428;2023-04-28T03:52:55;102023.59;;;5.79;58.97
46045;BME280;31781;54.094;13.428;2023-04-28T03:54:57;102018.34;;;5.78;59.09
46045;BME280;31781;54.094;13.428;2023-04-28T03:56:59;102023.75;;;5.78;59.44
46045;BME280;31781;54.094;13.428;2023-04-28T03:59:00;102022.88;;;5.77;59.44
46045;BME280;31781;54.094;13.428;2023-04-28T04:01:02;102019.31;;;5.77;59.02
46045;BME280;31781;54.094;13.428;2023-04-28T04:03:03;102014.09;;;5.75;59.08
46045;BME280;31781;54.094;13.428;2023-04-28T04:05:05;102013.38;;;5.73;59.57
46045;BME280;31781;54.094;13.428;2023-04-28T04:07:09;102017.91;;;5.73;58.98
46045;BME280;31781;54.094;13.428;2023-04-28T04:09:13;102016.22;;;5.72;59.44
46045;BME280;31781;54.094;13.428;2023-04-28T04:11:15;102008.25;;;5.70;58.79
46045;BME280;31781;54.094;13.428;2023-04-28T04:13:17;102013.84;;;5.69;59.21
46045;BME280;31781;54.094;13.428;2023-04-28T04:15:18;102011.25;;;5.67;58.94
46045;BME280;31781;54.094;13.428;2023-04-28T04:17:20;102010.41;;;5.67;59.86
46045;BME280;31781;54.094;13.428;2023-04-28T04:19:22;102006.00;;;5.66;59.18
46045;BME280;31781;54.094;13.428;2023-04-28T04:21:23;102007.72;;;5.67;60.76
46045;BME280;31781;54.094;13.428;2023-04-28T04:23:26;102004.16;;;5.66;60.51
46045;BME280;31781;54.094;13.428;2023-04-28T04:25:28;102008.88;;;5.64;60.67
46045;BME280;31781;54.094;13.428;2023-04-28T04:27:30;102001.75;;;5.63;60.47
46045;BME280;31781;54.094;13.428;2023-04-28T04:29:32;102006.28;;;5.63;60.06
46045;BME280;31781;54.094;13.428;2023-04-28T04:31:34;102007.28;;;5.62;60.56
46045;BME280;31781;54.094;13.428;2023-04-28T04:33:36;102006.47;;;5.61;60.67
46045;BME280;31781;54.094;13.428;2023-04-28T04:35:37;102015.38;;;5.62;61.14
46045;BME280;31781;54.094;13.428;2023-04-28T04:37:39;102005.44;;;5.62;60.62
46045;BME280;31781;54.094;13.428;2023-04-28T04:39:42;102010.56;;;5.65;60.46
46045;BME280;31781;54.094;13.428;2023-04-28T04:41:44;102012.97;;;5.68;60.93
46045;BME280;31781;54.094;13.428;2023-04-28T04:43:46;102019.06;;;5.70;60.18
46045;BME280;31781;54.094;13.428;2023-04-28T04:45:47;102019.63;;;5.74;60.73
46045;BME280;31781;54.094;13.428;2023-04-28T04:47:49;102018.34;;;5.78;60.98
46045;BME280;31781;54.094;13.428;2023-04-28T04:49:51;102012.63;;;5.81;60.39
46045;BME280;31781;54.094;13.428;2023-04-28T04:51:53;102016.75;;;5.85;60.63
46045;BME280;31781;54.094;13.428;2023-04-28T04:53:55;102010.09;;;5.89;60.72
46045;BME280;31781;54.094;13.428;2023-04-28T04:55:58;102006.94;;;5.94;60.83
46045;BME280;31781;54.094;13.428;2023-04-28T04:57:59;102001.94;;;5.99;61.04
46045;BME280;31781;54.094;13.428;2023-04-28T05:00:01;102002.22;;;6.05;60.86
46045;BME280;31781;54.094;13.428;2023-04-28T05:02:03;101998.91;;;6.11;60.68
46045;BME280;31781;54.094;13.428;2023-04-28T05:04:05;101999.31;;;6.16;61.15
46045;BME280;31781;54.094;13.428;2023-04-28T05:06:07;101986.91;;;6.23;61.35
46045;BME280;31781;54.094;13.428;2023-04-28T05:08:08;101993.53;;;6.29;61.19
46045;BME280;31781;54.094;13.428;2023-04-28T05:10:10;101977.88;;;6.32;61.04
46045;BME280;31781;54.094;13.428;2023-04-28T05:12:13;101985.22;;;6.40;60.38
46045;BME280;31781;54.094;13.428;2023-04-28T05:14:15;101984.78;;;6.45;60.95
46045;BME280;31781;54.094;13.428;2023-04-28T05:16:17;101987.88;;;6.50;60.99
46045;BME280;31781;54.094;13.428;2023-04-28T05:18:19;101985.88;;;6.52;62.30
46045;BME280;31781;54.094;13.428;2023-04-28T05:20:21;101981.72;;;6.57;61.68
46045;BME280;31781;54.094;13.428;2023-04-28T05:22:23;101982.41;;;6.59;62.15
46045;BME280;31781;54.094;13.428;2023-04-28T05:24:25;101981.94;;;6.64;61.48
46045;BME280;31781;54.094;13.428;2023-04-28T05:26:26;101982.47;;;6.67;61.72
46045;BME280;31781;54.094;13.428;2023-04-28T05:28:29;101981.19;;;6.71;61.86
46045;BME280;31781;54.094;13.428;2023-04-28T05:30:31;101987.97;;;6.75;62.04
46045;BME280;31781;54.094;13.428;2023-04-28T05:32:33;101975.53;;;6.82;62.19
46045;BME280;31781;54.094;13.428;2023-04-28T05:34:35;101980.19;;;6.90;61.82
46045;BME280;31781;54.094;13.428;2023-04-28T05:36:36;101976.50;;;6.99;62.31
46045;BME280;31781;54.094;13.428;2023-04-28T05:38:38;101983.72;;;7.08;61.93
46045;BME280;31781;54.094;13.428;2023-04-28T05:40:40;101977.53;;;7.16;62.15
46045;BME280;31781;54.094;13.428;2023-04-28T05:42:41;101987.25;;;7.26;61.76
46045;BME280;31781;54.094;13.428;2023-04-28T05:44:44;101977.00;;;7.38;62.92
46045;BME280;31781;54.094;13.428;2023-04-28T05:46:46;101977.91;;;7.47;61.69
46045;BME280;31781;54.094;13.428;2023-04-28T05:48:47;101978.34;;;7.60;61.94
46045;BME280;31781;54.094;13.428;2023-04-28T05:50:49;101970.63;;;7.73;61.45
46045;BME280;31781;54.094;13.428;2023-04-28T05:52:52;101974.75;;;7.85;60.58
46045;BME280;31781;54.094;13.428;2023-04-28T05:54:54;101973.47;;;7.97;60.46
46045;BME280;31781;54.094;13.428;2023-04-28T05:56:55;101962.16;;;8.10;59.68
46045;BME280;31781;54.094;13.428;2023-04-28T05:58:59;101963.56;;;8.22;58.91
46045;BME280;31781;54.094;13.428;2023-04-28T06:01:02;101962.28;;;8.34;59.17
46045;BME280;31781;54.094;13.428;2023-04-28T06:03:03;101955.88;;;8.43;58.92
46045;BME280;31781;54.094;13.428;2023-04-28T06:05:06;101962.84;;;8.54;59.12
46045;BME280;31781;54.094;13.428;2023-04-28T06:07:08;101961.00;;;8.62;59.28
46045;BME280;31781;54.094;13.428;2023-04-28T06:09:10;101950.00;;;8.72;58.73
46045;BME280;31781;54.094;13.428;2023-04-28T06:11:12;101949.00;;;8.81;58.90
46045;BME280;31781;54.094;13.428;2023-04-28T06:13:13;101949.66;;;8.91;57.99
46045;BME280;31781;54.094;13.428;2023-04-28T06:15:15;101956.97;;;8.99;57.66
46045;BME280;31781;54.094;13.428;2023-04-28T06:17:18;101956.97;;;9.07;57.42
46045;BME280;31781;54.094;13.428;2023-04-28T06:19:20;101953.56;;;9.13;57.61
46045;BME280;31781;54.094;13.428;2023-04-28T06:21:21;101950.84;;;9.21;58.18
46045;BME280;31781;54.094;13.428;2023-04-28T06:23:23;101952.38;;;9.32;57.78
46045;BME280;31781;54.094;13.428;2023-04-28T06:25:25;101950.50;;;9.40;57.85
46045;BME280;31781;54.094;13.428;2023-04-28T06:27:27;101945.72;;;9.50;57.26
46045;BME280;31781;54.094;13.428;2023-04-28T06:29:28;101943.69;;;9.60;56.92
46045;BME280;31781;54.094;13.428;2023-04-28T06:31:30;101947.41;;;9.67;57.37
46045;BME280;31781;54.094;13.428;2023-04-28T06:33:33;101950.91;;;9.76;57.26
46045;BME280;31781;54.094;13.428;2023-04-28T06:35:35;101943.44;;;9.86;56.54
46045;BME280;31781;54.094;13.428;2023-04-28T06:37:36;101937.78;;;9.96;56.26
46045;BME280;31781;54.094;13.428;2023-04-28T06:39:38;101943.00;;;10.05;56.23
46045;BME280;31781;54.094;13.428;2023-04-28T06:41:40;101945.53;;;10.15;56.17
46045;BME280;31781;54.094;13.428;2023-04-28T06:43:42;101938.38;;;10.22;55.40
46045;BME280;31781;54.094;13.428;2023-04-28T06:45:43;101937.47;;;10.30;55.45
46045;BME280;31781;54.094;13.428;2023-04-28T06:47:45;101943.53;;;10.40;55.56
46045;BME280;31781;54.094;13.428;2023-04-28T06:49:48;101936.00;;;10.50;55.04
46045;BME280;31781;54.094;13.428;2023-04-28T06:51:50;101934.75;;;10.60;55.25
46045;BME280;31781;54.094;13.428;2023-04-28T06:53:51;101926.19;;;10.71;55.32
46045;BME280;31781;54.094;13.428;2023-04-28T06:55:55;101926.78;;;10.82;50.14
46045;BME280;31781;54.094;13.428;2023-04-28T06:57:57;101925.31;;;10.94;53.06
46045;BME280;31781;54.094;13.428;2023-04-28T06:59:59;101926.94;;;11.03;53.22
46045;BME280;31781;54.094;13.428;2023-04-28T07:02:00;101924.63;;;11.14;53.71
46045;BME280;31781;54.094;13.428;2023-04-28T07:04:02;101924.16;;;11.26;53.14
46045;BME280;31781;54.094;13.428;2023-04-28T07:06:05;101927.09;;;11.39;50.69
46045;BME280;31781;54.094;13.428;2023-04-28T07:08:07;101922.72;;;11.52;51.46
46045;BME280;31781;54.094;13.428;2023-04-28T07:10:09;101920.38;;;11.64;48.10
46045;BME280;31781;54.094;13.428;2023-04-28T07:12:10;101911.56;;;11.77;48.07
46045;BME280;31781;54.094;13.428;2023-04-28T07:14:12;101911.38;;;11.93;48.04
46045;BME280;31781;54.094;13.428;2023-04-28T07:16:14;101916.97;;;12.06;46.56
46045;BME280;31781;54.094;13.428;2023-04-28T07:18:16;101908.13;;;12.18;45.98
46045;BME280;31781;54.094;13.428;2023-04-28T07:20:17;101910.81;;;12.33;45.97
46045;BME280;31781;54.094;13.428;2023-04-28T07:22:20;101904.66;;;12.46;45.54
46045;BME280;31781;54.094;13.428;2023-04-28T07:24:22;101895.78;;;12.58;44.88
46045;BME280;31781;54.094;13.428;2023-04-28T07:26:24;101905.78;;;12.73;43.77
46045;BME280;31781;54.094;13.428;2023-04-28T07:28:25;101902.97;;;12.87;45.02
46045;BME280;31781;54.094;13.428;2023-04-28T07:30:27;101907.06;;;12.98;43.97
46045;BME280;31781;54.094;13.428;2023-04-28T07:32:29;101901.56;;;13.12;44.23
46045;BME280;31781;54.094;13.428;2023-04-28T07:34:30;101901.41;;;13.21;43.99
46045;BME280;31781;54.094;13.428;2023-04-28T07:36:32;101894.97;;;13.28;44.26
46045;BME280;31781;54.094;13.428;2023-04-28T07:38:36;101903.66;;;13.38;44.51
46045;BME280;31781;54.094;13.428;2023-04-28T07:40:37;101898.47;;;13.50;43.52
46045;BME280;31781;54.094;13.428;2023-04-28T07:42:39;101894.31;;;13.60;43.54
46045;BME280;31781;54.094;13.428;2023-04-28T07:44:41;101891.03;;;13.72;42.77
46045;BME280;31781;54.094;13.428;2023-04-28T07:46:42;101882.06;;;13.84;42.51
46045;BME280;31781;54.094;13.428;2023-04-28T07:48:44;101886.09;;;13.95;41.80
46045;BME280;31781;54.094;13.428;2023-04-28T07:50:46;101887.22;;;14.07;42.10
46045;BME280;31781;54.094;13.428;2023-04-28T07:52:47;101893.59;;;14.21;41.22
46045;BME280;31781;54.094;13.428;2023-04-28T07:54:50;101891.09;;;14.32;41.27
46045;BME280;31781;54.094;13.428;2023-04-28T07:56:52;101887.56;;;14.45;39.99
46045;BME280;31781;54.094;13.428;2023-04-28T07:58:54;101887.81;;;14.56;39.61
46045;BME280;31781;54.094;13.428;2023-04-28T08:00:56;101881.72;;;14.68;39.84
46045;BME280;31781;54.094;13.428;2023-04-28T08:02:57;101889.97;;;14.81;40.40
46045;BME280;31781;54.094;13.428;2023-04-28T08:04:59;101887.22;;;14.94;40.13
46045;BME280;31781;54.094;13.428;2023-04-28T08:07:01;101888.09;;;15.07;41.14
46045;BME280;31781;54.094;13.428;2023-04-28T08:09:03;101885.34;;;15.21;40.40
46045;BME280;31781;54.094;13.428;2023-04-28T08:11:06;101876.03;;;15.35;38.37
46045;BME280;31781;54.094;13.428;2023-04-28T08:13:08;101873.75;;;15.51;38.87
46045;BME280;31781;54.094;13.428;2023-04-28T08:15:10;101872.41;;;15.67;39.48
46045;BME280;31781;54.094;13.428;2023-04-28T08:17:11;101869.84;;;15.79;38.88
46045;BME280;31781;54.094;13.428;2023-04-28T08:19:13;101864.75;;;15.95;38.31
46045;BME280;31781;54.094;13.428;2023-04-28T08:21:15;101865.72;;;16.07;38.33
46045;BME280;31781;54.094;13.428;2023-04-28T08:23:16;101873.28;;;16.19;37.04
46045;BME280;31781;54.094;13.428;2023-04-28T08:25:18;101875.34;;;16.30;36.92
46045;BME280;31781;54.094;13.428;2023-04-28T08:27:21;101875.53;;;16.35;36.93
46045;BME280;31781;54.094;13.428;2023-04-28T08:29:23;101868.31;;;16.40;36.63
46045;BME280;31781;54.094;13.428;2023-04-28T08:31:25;101861.50;;;16.49;35.84
46045;BME280;31781;54.094;13.428;2023-04-28T08:33:26;101869.06;;;16.61;36.03
46045;BME280;31781;54.094;13.428;2023-04-28T08:35:28;101870.31;;;16.65;36.07
46045;BME280;31781;54.094;13.428;2023-04-28T08:37:30;101867.50;;;16.71;35.76
46045;BME280;31781;54.094;13.428;2023-04-28T08:39:32;101868.28;;;16.78;35.60
46045;BME280;31781;54.094;13.428;2023-04-28T08:41:37;101874.59;;;16.85;36.71
46045;BME280;31781;54.094;13.428;2023-04-28T08:43:40;101870.97;;;16.91;35.30
46045;BME280;31781;54.094;13.428;2023-04-28T08:45:43;101861.81;;;16.97;35.64
46045;BME280;31781;54.094;13.428;2023-04-28T08:47:48;101867.88;;;17.06;36.76
46045;BME280;31781;54.094;13.428;2023-04-28T08:49:50;101864.22;;;17.12;35.11
46045;BME280;31781;54.094;13.428;2023-04-28T08:51:55;101861.41;;;17.19;34.61
46045;BME280;31781;54.094;13.428;2023-04-28T08:53:58;101864.25;;;17.30;34.67
46045;BME280;31781;54.094;13.428;2023-04-28T08:56:20;101859.78;;;17.36;33.79
46045;BME280;31781;54.094;13.428;2023-04-28T08:58:24;101862.66;;;17.41;33.47
46045;BME280;31781;54.094;13.428;2023-04-28T09:00:28;101857.94;;;17.48;33.35
46045;BME280;31781;54.094;13.428;2023-04-28T09:02:29;101849.22;;;17.58;33.08
46045;BME280;31781;54.094;13.428;2023-04-28T09:04:32;101844.63;;;17.70;33.17
46045;BME280;31781;54.094;13.428;2023-04-28T09:06:35;101837.97;;;17.77;32.77
46045;BME280;31781;54.094;13.428;2023-04-28T09:08:36;101837.22;;;17.88;32.34
46045;BME280;31781;54.094;13.428;2023-04-28T09:10:38;101839.25;;;17.93;33.04
46045;BME280;31781;54.094;13.428;2023-04-28T09:12:40;101834.50;;;18.00;33.10
46045;BME280;31781;54.094;13.428;2023-04-28T09:14:41;101832.38;;;18.02;32.14
46045;BME280;31781;54.094;13.428;2023-04-28T09:16:44;101830.84;;;18.06;32.97
46045;BME280;31781;54.094;13.428;2023-04-28T09:18:55;101829.41;;;18.15;35.08
46045;BME280;31781;54.094;13.428;2023-04-28T09:21:02;101838.59;;;18.27;34.61
46045;BME280;31781;54.094;13.428;2023-04-28T09:23:14;101829.31;;;18.40;35.13
46045;BME280;31781;54.094;13.428;2023-04-28T09:25:16;101826.59;;;18.52;32.20
46045;BME280;31781;54.094;13.428;2023-04-28T09:27:25;101824.84;;;18.69;33.43
46045;BME280;31781;54.094;13.428;2023-04-28T09:29:28;101820.44;;;18.79;31.25
46045;BME280;31781;54.094;13.428;2023-04-28T09:31:29;101817.91;;;18.89;31.96
46045;BME280;31781;54.094;13.428;2023-04-28T09:33:32;101818.41;;;18.98;30.18
46045;BME280;31781;54.094;13.428;2023-04-28T09:35:41;101813.50;;;19.12;33.01
46045;BME280;31781;54.094;13.428;2023-04-28T09:37:43;101810.25;;;19.15;30.85
46045;BME280;31781;54.094;13.428;2023-04-28T09:39:46;101803.91;;;19.14;29.98
46045;BME280;31781;54.094;13.428;2023-04-28T09:41:48;101805.34;;;19.17;30.61
46045;BME280;31781;54.094;13.428;2023-04-28T09:43:50;101808.00;;;19.23;30.22
46045;BME280;31781;54.094;13.428;2023-04-28T09:45:51;101802.09;;;19.31;30.92
46045;BME280;31781;54.094;13.428;2023-04-28T09:48:08;101804.16;;;19.48;34.05
46045;BME280;31781;54.094;13.428;2023-04-28T09:50:13;101794.78;;;19.60;30.58
46045;BME280;31781;54.094;13.428;2023-04-28T09:52:15;101805.06;;;19.76;30.29
46045;BME280;31781;54.094;13.428;2023-04-28T09:54:20;101787.13;;;19.90;30.73
46045;BME280;31781;54.094;13.428;2023-04-28T09:56:23;101784.91;;;20.04;30.39
46045;BME280;31781;54.094;13.428;2023-04-28T09:58:29;101772.38;;;20.13;29.95
46045;BME280;31781;54.094;13.428;2023-04-28T10:00:32;101789.16;;;20.23;30.78
46045;BME280;31781;54.094;13.428;2023-04-28T10:02:37;101777.97;;;20.30;29.14
46045;BME280;31781;54.094;13.428;2023-04-28T10:04:43;101772.88;;;20.38;28.57
46045;BME280;31781;54.094;13.428;2023-04-28T10:06:46;101777.50;;;20.50;29.98
46045;BME280;31781;54.094;13.428;2023-04-28T10:08:50;101775.00;;;20.65;29.44
46045;BME280;31781;54.094;13.428;2023-04-28T10:10:52;101771.66;;;20.79;29.32
46045;BME280;31781;54.094;13.428;2023-04-28T10:12:54;101760.41;;;20.86;27.82
46045;BME280;31781;54.094;13.428;2023-04-28T10:14:57;101772.03;;;20.88;28.62
46045;BME280;31781;54.094;13.428;2023-04-28T10:16:59;101765.09;;;20.85;28.59
46045;BME280;31781;54.094;13.428;2023-04-28T10:19:01;101762.66;;;20.89;28.53
46045;BME280;31781;54.094;13.428;2023-04-28T10:21:04;101758.91;;;20.95;28.50
46045;BME280;31781;54.094;13.428;2023-04-28T10:23:30;101751.09;;;21.09;32.31
46045;BME280;31781;54.094;13.428;2023-04-28T10:25:36;101754.03;;;21.19;28.72
46045;BME280;31781;54.094;13.428;2023-04-28T10:27:40;101747.00;;;21.33;28.46
46045;BME280;31781;54.094;13.428;2023-04-28T10:29:42;101748.81;;;21.44;27.32
46045;BME280;31781;54.094;13.428;2023-04-28T10:32:16;101744.84;;;21.57;31.48
46045;BME280;31781;54.094;13.428;2023-04-28T10:34:21;101727.47;;;21.61;28.71
46045;BME280;31781;54.094;13.428;2023-04-28T10:36:46;101731.72;;;21.69;30.24